createdAt,value
2023-05-12T00:02:17.829Z,5.70
2023-05-12T00:12:17.668Z,6.10
2023-05-12T00:22:17.924Z,5.30
2023-05-12T00:32:18.006Z,5.10
2023-05-12T00:42:18.052Z,3.90
2023-05-12T00:52:18.090Z,4.00
2023-05-12T01:02:18.053Z,4.60
2023-05-12T01:12:18.911Z,4.70
2023-05-12T01:22:23.292Z,4.90
2023-05-12T01:32:22.878Z,5.50
2023-05-12T01:42:22.479Z,5.20
2023-05-12T01:52:22.119Z,5.50
2023-05-12T02:02:21.718Z,6.10
2023-05-12T02:12:21.362Z,6.10
2023-05-12T02:22:20.991Z,5.60
2023-05-12T02:32:20.658Z,5.30
2023-05-12T02:42:20.218Z,6.30
2023-05-12T02:52:20.037Z,6.00
2023-05-12T03:02:19.484Z,6.70
2023-05-12T03:12:19.518Z,6.10
2023-05-12T03:22:19.558Z,4.90
2023-05-12T03:32:19.629Z,4.80
2023-05-12T03:42:19.711Z,5.20
2023-05-12T03:52:19.973Z,3.70
2023-05-12T04:02:19.876Z,3.60
2023-05-12T04:12:19.880Z,3.80
2023-05-12T04:22:20.027Z,3.60
2023-05-12T04:32:24.662Z,4.10
2023-05-12T04:42:24.217Z,4.00
2023-05-12T04:52:24.927Z,4.60
2023-05-12T05:02:23.613Z,4.60
2023-05-12T05:12:23.295Z,4.40
2023-05-12T05:22:22.781Z,4.90
2023-05-12T05:32:22.422Z,5.10
2023-05-12T05:42:22.009Z,5.00
2023-05-12T05:52:21.693Z,5.10
2023-05-12T06:02:21.296Z,5.70
2023-05-12T06:12:20.880Z,5.00
2023-05-12T06:22:20.657Z,4.80
2023-05-12T06:32:20.377Z,4.60
2023-05-12T06:42:20.239Z,4.10
2023-05-12T06:52:20.249Z,4.70
2023-05-12T07:02:20.333Z,4.30
2023-05-12T07:12:20.257Z,4.00
2023-05-12T07:22:20.504Z,3.60
2023-05-12T07:32:20.382Z,3.70
2023-05-12T07:42:20.441Z,4.10
2023-05-12T07:52:25.603Z,3.70
2023-05-12T08:02:25.405Z,4.00
2023-05-12T08:12:24.792Z,3.70
2023-05-12T08:22:24.612Z,4.00
2023-05-12T08:32:24.078Z,3.60
2023-05-12T08:42:23.865Z,4.00
2023-05-12T08:52:23.455Z,4.30
2023-05-12T09:02:23.052Z,4.10
2023-05-12T09:12:22.532Z,4.30
2023-05-12T09:22:22.186Z,4.40
2023-05-12T09:32:22.264Z,4.30
2023-05-12T09:42:27.633Z,4.30
2023-05-12T09:52:27.093Z,4.80
2023-05-12T10:02:26.962Z,4.40
2023-05-12T10:12:26.340Z,4.90
2023-05-12T10:22:25.971Z,4.70
2023-05-12T10:32:25.808Z,4.50
2023-05-12T10:42:27.278Z,5.10
2023-05-12T10:52:25.253Z,5.20
2023-05-12T11:02:31.055Z,4.80
2023-05-12T11:12:30.307Z,5.00
2023-05-12T11:22:29.699Z,5.20
2023-05-12T11:32:29.288Z,5.00
2023-05-12T11:42:28.927Z,5.00
2023-05-12T11:52:28.537Z,5.00
2023-05-12T12:02:34.060Z,5.00
2023-05-12T12:12:33.329Z,4.90
2023-05-12T12:22:32.942Z,5.30
2023-05-12T12:32:32.558Z,4.90
2023-05-12T12:42:36.161Z,4.80
2023-05-12T12:52:31.977Z,4.90
2023-05-12T13:02:37.020Z,5.30
2023-05-12T13:12:36.602Z,4.90
2023-05-12T13:22:36.313Z,5.10
2023-05-12T13:32:35.889Z,5.00
2023-05-12T13:42:35.434Z,5.00
2023-05-12T13:52:40.730Z,4.20
2023-05-12T14:02:40.196Z,5.30
2023-05-12T14:12:39.821Z,4.50
2023-05-12T14:22:39.551Z,4.80
2023-05-12T14:32:39.139Z,4.80
2023-05-12T14:42:44.229Z,5.20
2023-05-12T14:52:43.877Z,5.50
2023-05-12T15:02:45.296Z,4.90
2023-05-12T15:12:43.287Z,5.20
2023-05-12T15:22:42.766Z,5.80
2023-05-12T15:32:47.920Z,5.40
2023-05-12T15:42:47.473Z,5.50
2023-05-12T15:52:47.091Z,5.80
2023-05-12T16:02:46.749Z,6.00
2023-05-12T16:12:46.743Z,5.60
2023-05-12T16:22:51.945Z,5.60
2023-05-12T16:32:51.341Z,5.50
2023-05-12T16:42:50.965Z,6.00
2023-05-12T16:52:50.933Z,5.80
2023-05-12T17:02:50.254Z,5.50
2023-05-12T17:12:55.358Z,5.80
2023-05-12T17:22:55.126Z,5.90
2023-05-12T17:32:54.799Z,5.90
2023-05-12T17:42:54.268Z,5.70
2023-05-12T17:52:54.229Z,6.50
2023-05-12T18:02:53.630Z,5.90
2023-05-12T18:12:58.746Z,6.40
2023-05-12T18:22:58.443Z,6.10
2023-05-12T18:32:58.130Z,5.60
2023-05-12T18:42:57.553Z,6.60
2023-05-12T18:52:57.200Z,6.30
2023-05-12T19:02:56.967Z,5.80
2023-05-12T19:13:02.214Z,6.20
2023-05-12T19:23:01.686Z,6.40
2023-05-12T19:33:01.319Z,6.30
2023-05-12T19:43:00.954Z,5.80
2023-05-12T19:53:00.575Z,5.90
2023-05-12T20:03:00.455Z,6.40
2023-05-12T20:13:00.251Z,6.00
2023-05-12T20:23:05.395Z,5.50
2023-05-12T20:33:05.573Z,6.00
2023-05-12T20:43:04.636Z,6.70
2023-05-12T20:53:04.437Z,6.30
2023-05-12T21:03:03.932Z,6.90
2023-05-12T21:13:03.591Z,6.40
2023-05-12T21:23:03.846Z,7.00
2023-05-12T21:33:02.897Z,6.90
2023-05-12T21:43:02.692Z,7.30
2023-05-12T21:53:07.738Z,7.80
2023-05-12T22:03:07.442Z,7.40
2023-05-12T22:13:07.042Z,7.20
2023-05-12T22:23:06.638Z,6.80
2023-05-12T22:33:06.476Z,7.40
2023-05-12T22:43:05.858Z,7.60
2023-05-12T22:53:05.537Z,7.80
2023-05-12T23:03:05.331Z,7.80
2023-05-12T23:13:04.797Z,7.60
2023-05-12T23:23:04.406Z,7.10
2023-05-12T23:33:04.345Z,7.90
2023-05-12T23:43:03.845Z,7.90
2023-05-12T23:53:04.222Z,8.40
